sensor_id;sensor_type;location;lat;lon;timestamp;P1;durP1;ratioP1;P2;durP2;ratioP2
50717;SDS011;60557;51.350;12.410;2023-05-02T00:01:32;11.23;;;4.80;;
50717;SDS011;60557;51.350;12.410;2023-05-02T00:03:58;7.43;;;4.50;;
50717;SDS011;60557;51.350;12.410;2023-05-02T00:06:24;10.48;;;5.47;;
50717;SDS011;60557;51.350;12.410;2023-05-02T00:08:50;6.47;;;4.28;;
50717;SDS011;60557;51.350;12.410;2023-05-02T00:11:16;7.38;;;5.18;;
50717;SDS011;60557;51.350;12.410;2023-05-02T00:13:42;8.32;;;5.32;;
50717;SDS011;60557;51.350;12.410;2023-05-02T00:16:08;8.07;;;4.38;;
50717;SDS011;60557;51.350;12.410;2023-05-02T00:18:37;8.85;;;5.13;;
50717;SDS011;60557;51.350;12.410;2023-05-02T00:21:03;14.85;;;5.00;;
50717;SDS011;60557;51.350;12.410;2023-05-02T00:23:32;6.05;;;4.05;;
50717;SDS011;60557;51.350;12.410;2023-05-02T00:25:58;6.13;;;4.40;;
50717;SDS011;60557;51.350;12.410;2023-05-02T00:28:24;7.38;;;4.93;;
50717;SDS011;60557;51.350;12.410;2023-05-02T00:30:51;9.27;;;4.50;;
50717;SDS011;60557;51.350;12.410;2023-05-02T00:33:20;7.25;;;4.18;;
50717;SDS011;60557;51.350;12.410;2023-05-02T00:35:48;7.45;;;4.25;;
50717;SDS011;60557;51.350;12.410;2023-05-02T00:38:15;10.32;;;5.65;;
50717;SDS011;60557;51.350;12.410;2023-05-02T00:40:45;7.70;;;4.70;;
50717;SDS011;60557;51.350;12.410;2023-05-02T00:43:11;8.82;;;4.25;;
50717;SDS011;60557;51.350;12.410;2023-05-02T00:45:38;7.93;;;4.30;;
50717;SDS011;60557;51.350;12.410;2023-05-02T00:48:13;10.23;;;4.50;;
50717;SDS011;60557;51.350;12.410;2023-05-02T00:50:40;9.10;;;4.47;;
50717;SDS011;60557;51.350;12.410;2023-05-02T00:53:07;8.70;;;4.68;;
50717;SDS011;60557;51.350;12.410;2023-05-02T00:55:36;8.05;;;4.22;;
50717;SDS011;60557;51.350;12.410;2023-05-02T00:58:03;10.23;;;4.22;;
50717;SDS011;60557;51.350;12.410;2023-05-02T01:01:18;4.70;;;3.90;;
50717;SDS011;60557;51.350;12.410;2023-05-02T01:06:09;7.25;;;4.53;;
50717;SDS011;60557;51.350;12.410;2023-05-02T01:13:35;6.40;;;3.92;;
50717;SDS011;60557;51.350;12.410;2023-05-02T01:16:02;8.75;;;4.93;;
50717;SDS011;60557;51.350;12.410;2023-05-02T01:18:30;8.60;;;4.47;;
50717;SDS011;60557;51.350;12.410;2023-05-02T01:21:02;6.47;;;4.25;;
50717;SDS011;60557;51.350;12.410;2023-05-02T01:31:13;7.90;;;4.68;;
50717;SDS011;60557;51.350;12.410;2023-05-02T01:33:42;10.35;;;4.25;;
50717;SDS011;60557;51.350;12.410;2023-05-02T01:36:09;7.00;;;4.15;;
50717;SDS011;60557;51.350;12.410;2023-05-02T01:38:36;7.75;;;4.43;;
50717;SDS011;60557;51.350;12.410;2023-05-02T01:41:04;8.55;;;4.10;;
50717;SDS011;60557;51.350;12.410;2023-05-02T01:43:33;11.10;;;4.63;;
50717;SDS011;60557;51.350;12.410;2023-05-02T01:46:02;7.40;;;5.25;;
50717;SDS011;60557;51.350;12.410;2023-05-02T01:48:29;7.78;;;3.95;;
50717;SDS011;60557;51.350;12.410;2023-05-02T01:50:58;7.50;;;4.15;;
50717;SDS011;60557;51.350;12.410;2023-05-02T01:53:25;7.78;;;3.78;;
50717;SDS011;60557;51.350;12.410;2023-05-02T01:55:53;6.38;;;3.83;;
50717;SDS011;60557;51.350;12.410;2023-05-02T01:58:20;6.75;;;3.53;;
50717;SDS011;60557;51.350;12.410;2023-05-02T02:00:48;9.38;;;4.07;;
50717;SDS011;60557;51.350;12.410;2023-05-02T02:03:15;6.68;;;3.75;;
50717;SDS011;60557;51.350;12.410;2023-05-02T02:05:45;5.63;;;3.95;;
50717;SDS011;60557;51.350;12.410;2023-05-02T02:08:15;5.93;;;3.78;;
50717;SDS011;60557;51.350;12.410;2023-05-02T02:10:42;6.72;;;4.53;;
50717;SDS011;60557;51.350;12.410;2023-05-02T02:13:12;6.20;;;3.70;;
50717;SDS011;60557;51.350;12.410;2023-05-02T02:15:41;7.30;;;3.85;;
50717;SDS011;60557;51.350;12.410;2023-05-02T02:20:37;7.43;;;4.03;;
50717;SDS011;60557;51.350;12.410;2023-05-02T02:23:04;10.07;;;6.43;;
50717;SDS011;60557;51.350;12.410;2023-05-02T02:25:31;8.63;;;4.78;;
50717;SDS011;60557;51.350;12.410;2023-05-02T02:28:00;5.55;;;4.22;;
50717;SDS011;60557;51.350;12.410;2023-05-02T02:30:26;6.70;;;4.68;;
50717;SDS011;60557;51.350;12.410;2023-05-02T02:32:52;8.38;;;4.43;;
50717;SDS011;60557;51.350;12.410;2023-05-02T02:35:18;5.30;;;3.95;;
50717;SDS011;60557;51.350;12.410;2023-05-02T02:40:22;9.10;;;4.25;;
50717;SDS011;60557;51.350;12.410;2023-05-02T02:42:59;7.22;;;4.22;;
50717;SDS011;60557;51.350;12.410;2023-05-02T02:50:37;5.93;;;4.00;;
50717;SDS011;60557;51.350;12.410;2023-05-02T02:53:11;13.53;;;4.00;;
50717;SDS011;60557;51.350;12.410;2023-05-02T02:55:52;6.95;;;4.13;;
50717;SDS011;60557;51.350;12.410;2023-05-02T02:58:24;6.60;;;3.72;;
50717;SDS011;60557;51.350;12.410;2023-05-02T03:00:51;10.48;;;4.35;;
50717;SDS011;60557;51.350;12.410;2023-05-02T03:03:17;5.60;;;3.95;;
50717;SDS011;60557;51.350;12.410;2023-05-02T03:05:45;6.18;;;3.72;;
50717;SDS011;60557;51.350;12.410;2023-05-02T03:08:11;7.18;;;4.38;;
50717;SDS011;60557;51.350;12.410;2023-05-02T03:10:37;8.60;;;4.30;;
50717;SDS011;60557;51.350;12.410;2023-05-02T03:13:04;8.55;;;4.35;;
50717;SDS011;60557;51.350;12.410;2023-05-02T03:18:01;4.82;;;4.10;;
50717;SDS011;60557;51.350;12.410;2023-05-02T03:20:27;6.88;;;4.30;;
50717;SDS011;60557;51.350;12.410;2023-05-02T03:22:53;4.97;;;3.50;;
50717;SDS011;60557;51.350;12.410;2023-05-02T03:25:19;7.32;;;4.65;;
50717;SDS011;60557;51.350;12.410;2023-05-02T03:27:45;5.85;;;4.15;;
50717;SDS011;60557;51.350;12.410;2023-05-02T03:30:12;5.07;;;3.67;;
50717;SDS011;60557;51.350;12.410;2023-05-02T03:32:40;6.13;;;4.35;;
50717;SDS011;60557;51.350;12.410;2023-05-02T03:35:07;7.75;;;3.40;;
50717;SDS011;60557;51.350;12.410;2023-05-02T03:37:33;11.27;;;4.03;;
50717;SDS011;60557;51.350;12.410;2023-05-02T03:39:59;5.88;;;3.50;;
50717;SDS011;60557;51.350;12.410;2023-05-02T03:42:25;6.35;;;4.43;;
50717;SDS011;60557;51.350;12.410;2023-05-02T03:44:52;11.15;;;3.97;;
50717;SDS011;60557;51.350;12.410;2023-05-02T03:47:18;5.78;;;4.00;;
50717;SDS011;60557;51.350;12.410;2023-05-02T03:49:44;9.95;;;4.25;;
50717;SDS011;60557;51.350;12.410;2023-05-02T03:52:10;9.25;;;4.25;;
50717;SDS011;60557;51.350;12.410;2023-05-02T03:54:36;7.50;;;3.95;;
50717;SDS011;60557;51.350;12.410;2023-05-02T03:57:03;9.18;;;3.78;;
50717;SDS011;60557;51.350;12.410;2023-05-02T03:59:32;10.50;;;4.78;;
50717;SDS011;60557;51.350;12.410;2023-05-02T04:02:05;8.55;;;3.85;;
50717;SDS011;60557;51.350;12.410;2023-05-02T04:04:31;5.75;;;3.50;;
50717;SDS011;60557;51.350;12.410;2023-05-02T04:06:57;6.43;;;3.72;;
50717;SDS011;60557;51.350;12.410;2023-05-02T04:09:23;5.72;;;3.83;;
50717;SDS011;60557;51.350;12.410;2023-05-02T04:11:50;5.40;;;3.33;;
50717;SDS011;60557;51.350;12.410;2023-05-02T04:14:16;7.78;;;4.05;;
50717;SDS011;60557;51.350;12.410;2023-05-02T04:16:51;9.73;;;3.67;;
50717;SDS011;60557;51.350;12.410;2023-05-02T04:19:17;7.43;;;4.70;;
50717;SDS011;60557;51.350;12.410;2023-05-02T04:21:44;6.43;;;3.75;;
50717;SDS011;60557;51.350;12.410;2023-05-02T04:24:10;7.85;;;3.70;;
50717;SDS011;60557;51.350;12.410;2023-05-02T04:26:36;8.57;;;3.47;;
50717;SDS011;60557;51.350;12.410;2023-05-02T04:29:05;9.75;;;3.92;;
50717;SDS011;60557;51.350;12.410;2023-05-02T04:31:33;7.15;;;3.63;;
50717;SDS011;60557;51.350;12.410;2023-05-02T04:33:59;7.05;;;2.85;;
50717;SDS011;60557;51.350;12.410;2023-05-02T04:36:25;7.47;;;3.22;;
50717;SDS011;60557;51.350;12.410;2023-05-02T04:38:52;5.53;;;3.35;;
50717;SDS011;60557;51.350;12.410;2023-05-02T04:41:18;6.95;;;4.00;;
50717;SDS011;60557;51.350;12.410;2023-05-02T04:43:45;6.15;;;3.58;;
50717;SDS011;60557;51.350;12.410;2023-05-02T04:46:11;6.93;;;3.33;;
50717;SDS011;60557;51.350;12.410;2023-05-02T04:48:37;5.38;;;3.30;;
50717;SDS011;60557;51.350;12.410;2023-05-02T04:51:07;6.55;;;3.35;;
50717;SDS011;60557;51.350;12.410;2023-05-02T04:53:33;4.57;;;3.25;;
50717;SDS011;60557;51.350;12.410;2023-05-02T04:55:59;7.03;;;3.45;;
50717;SDS011;60557;51.350;12.410;2023-05-02T04:58:25;4.82;;;2.60;;
50717;SDS011;60557;51.350;12.410;2023-05-02T05:00:51;5.70;;;3.15;;
50717;SDS011;60557;51.350;12.410;2023-05-02T05:03:19;4.50;;;2.75;;
50717;SDS011;60557;51.350;12.410;2023-05-02T05:05:45;3.40;;;2.50;;
50717;SDS011;60557;51.350;12.410;2023-05-02T05:08:13;10.32;;;3.95;;
50717;SDS011;60557;51.350;12.410;2023-05-02T05:10:41;6.10;;;3.00;;
50717;SDS011;60557;51.350;12.410;2023-05-02T05:13:10;3.78;;;2.67;;
50717;SDS011;60557;51.350;12.410;2023-05-02T05:15:37;4.18;;;2.85;;
50717;SDS011;60557;51.350;12.410;2023-05-02T05:18:04;3.25;;;2.33;;
50717;SDS011;60557;51.350;12.410;2023-05-02T05:20:30;9.48;;;3.28;;
50717;SDS011;60557;51.350;12.410;2023-05-02T05:22:57;8.65;;;3.22;;
50717;SDS011;60557;51.350;12.410;2023-05-02T05:25:27;8.02;;;3.20;;
50717;SDS011;60557;51.350;12.410;2023-05-02T05:27:53;5.20;;;2.78;;
50717;SDS011;60557;51.350;12.410;2023-05-02T05:30:20;6.25;;;3.10;;
50717;SDS011;60557;51.350;12.410;2023-05-02T05:32:46;3.45;;;2.53;;
50717;SDS011;60557;51.350;12.410;2023-05-02T05:35:12;7.88;;;2.67;;
50717;SDS011;60557;51.350;12.410;2023-05-02T05:37:38;6.90;;;3.22;;
50717;SDS011;60557;51.350;12.410;2023-05-02T05:40:07;5.97;;;2.70;;
50717;SDS011;60557;51.350;12.410;2023-05-02T05:42:36;11.50;;;3.58;;
50717;SDS011;60557;51.350;12.410;2023-05-02T05:45:05;5.78;;;3.42;;
50717;SDS011;60557;51.350;12.410;2023-05-02T05:47:34;5.78;;;2.70;;
50717;SDS011;60557;51.350;12.410;2023-05-02T05:50:00;7.18;;;2.60;;
50717;SDS011;60557;51.350;12.410;2023-05-02T05:52:26;18.27;;;2.85;;
50717;SDS011;60557;51.350;12.410;2023-05-02T05:54:52;10.43;;;3.10;;
50717;SDS011;60557;51.350;12.410;2023-05-02T05:57:20;8.93;;;3.15;;
50717;SDS011;60557;51.350;12.410;2023-05-02T05:59:46;9.65;;;2.80;;
50717;SDS011;60557;51.350;12.410;2023-05-02T06:02:12;7.68;;;2.80;;
50717;SDS011;60557;51.350;12.410;2023-05-02T06:04:39;4.80;;;3.00;;
50717;SDS011;60557;51.350;12.410;2023-05-02T06:07:05;7.80;;;3.50;;
50717;SDS011;60557;51.350;12.410;2023-05-02T06:09:31;15.68;;;3.58;;
50717;SDS011;60557;51.350;12.410;2023-05-02T06:11:57;6.22;;;3.03;;
50717;SDS011;60557;51.350;12.410;2023-05-02T06:14:23;5.95;;;2.80;;
50717;SDS011;60557;51.350;12.410;2023-05-02T06:16:50;10.13;;;3.78;;
50717;SDS011;60557;51.350;12.410;2023-05-02T06:19:16;5.47;;;2.92;;
50717;SDS011;60557;51.350;12.410;2023-05-02T06:21:42;5.15;;;2.75;;
50717;SDS011;60557;51.350;12.410;2023-05-02T06:24:08;7.38;;;2.67;;
50717;SDS011;60557;51.350;12.410;2023-05-02T06:26:35;7.35;;;2.80;;
50717;SDS011;60557;51.350;12.410;2023-05-02T06:29:01;7.32;;;2.70;;
50717;SDS011;60557;51.350;12.410;2023-05-02T06:31:27;4.22;;;2.65;;
50717;SDS011;60557;51.350;12.410;2023-05-02T06:33:53;6.28;;;2.75;;
50717;SDS011;60557;51.350;12.410;2023-05-02T06:36:19;6.68;;;3.20;;
50717;SDS011;60557;51.350;12.410;2023-05-02T06:38:46;8.65;;;3.80;;
50717;SDS011;60557;51.350;12.410;2023-05-02T06:41:14;7.07;;;3.55;;
50717;SDS011;60557;51.350;12.410;2023-05-02T06:43:40;8.40;;;3.45;;
50717;SDS011;60557;51.350;12.410;2023-05-02T06:46:07;6.13;;;3.20;;
50717;SDS011;60557;51.350;12.410;2023-05-02T06:48:36;8.40;;;3.50;;
50717;SDS011;60557;51.350;12.410;2023-05-02T06:51:02;6.95;;;3.20;;
50717;SDS011;60557;51.350;12.410;2023-05-02T06:53:29;4.10;;;3.08;;
50717;SDS011;60557;51.350;12.410;2023-05-02T06:55:55;6.00;;;3.50;;
50717;SDS011;60557;51.350;12.410;2023-05-02T06:58:21;7.00;;;3.63;;
50717;SDS011;60557;51.350;12.410;2023-05-02T07:00:47;8.10;;;3.80;;
50717;SDS011;60557;51.350;12.410;2023-05-02T07:03:14;7.07;;;3.70;;
50717;SDS011;60557;51.350;12.410;2023-05-02T07:05:40;8.50;;;3.97;;
50717;SDS011;60557;51.350;12.410;2023-05-02T07:08:06;7.75;;;4.20;;
50717;SDS011;60557;51.350;12.410;2023-05-02T07:10:33;9.57;;;5.35;;
50717;SDS011;60557;51.350;12.410;2023-05-02T07:12:59;10.90;;;5.22;;
50717;SDS011;60557;51.350;12.410;2023-05-02T07:15:25;9.75;;;5.63;;
50717;SDS011;60557;51.350;12.410;2023-05-02T07:17:51;9.50;;;4.57;;
50717;SDS011;60557;51.350;12.410;2023-05-02T07:20:17;12.23;;;5.55;;
50717;SDS011;60557;51.350;12.410;2023-05-02T07:22:46;10.82;;;5.20;;
50717;SDS011;60557;51.350;12.410;2023-05-02T07:25:12;9.73;;;5.32;;
50717;SDS011;60557;51.350;12.410;2023-05-02T07:27:38;11.48;;;6.22;;
50717;SDS011;60557;51.350;12.410;2023-05-02T07:30:04;9.05;;;4.80;;
50717;SDS011;60557;51.350;12.410;2023-05-02T07:32:30;9.82;;;4.38;;
50717;SDS011;60557;51.350;12.410;2023-05-02T07:34:57;5.60;;;3.88;;
50717;SDS011;60557;51.350;12.410;2023-05-02T07:37:23;7.43;;;4.05;;
50717;SDS011;60557;51.350;12.410;2023-05-02T07:39:49;8.93;;;5.07;;
50717;SDS011;60557;51.350;12.410;2023-05-02T07:42:15;12.85;;;5.97;;
50717;SDS011;60557;51.350;12.410;2023-05-02T07:44:43;9.20;;;5.15;;
50717;SDS011;60557;51.350;12.410;2023-05-02T07:47:09;13.48;;;5.53;;
50717;SDS011;60557;51.350;12.410;2023-05-02T07:49:37;9.88;;;5.38;;
50717;SDS011;60557;51.350;12.410;2023-05-02T07:52:03;11.45;;;5.95;;
50717;SDS011;60557;51.350;12.410;2023-05-02T07:54:33;9.43;;;5.00;;
50717;SDS011;60557;51.350;12.410;2023-05-02T07:57:02;8.63;;;4.88;;
50717;SDS011;60557;51.350;12.410;2023-05-02T07:59:29;10.10;;;5.45;;
50717;SDS011;60557;51.350;12.410;2023-05-02T08:01:56;11.23;;;5.38;;
50717;SDS011;60557;51.350;12.410;2023-05-02T08:04:24;13.55;;;5.70;;
50717;SDS011;60557;51.350;12.410;2023-05-02T08:06:50;11.50;;;5.97;;
50717;SDS011;60557;51.350;12.410;2023-05-02T08:09:16;9.30;;;6.25;;
50717;SDS011;60557;51.350;12.410;2023-05-02T08:11:43;14.80;;;9.57;;
50717;SDS011;60557;51.350;12.410;2023-05-02T08:14:09;18.13;;;10.98;;
50717;SDS011;60557;51.350;12.410;2023-05-02T08:16:37;22.40;;;12.65;;
50717;SDS011;60557;51.350;12.410;2023-05-02T08:19:03;24.17;;;13.30;;
50717;SDS011;60557;51.350;12.410;2023-05-02T08:21:29;19.40;;;12.75;;
50717;SDS011;60557;51.350;12.410;2023-05-02T08:23:56;18.67;;;12.90;;
50717;SDS011;60557;51.350;12.410;2023-05-02T08:26:23;18.38;;;14.38;;
50717;SDS011;60557;51.350;12.410;2023-05-02T08:28:51;24.30;;;16.02;;
50717;SDS011;60557;51.350;12.410;2023-05-02T08:31:18;27.88;;;15.65;;
50717;SDS011;60557;51.350;12.410;2023-05-02T08:33:46;24.45;;;15.05;;
50717;SDS011;60557;51.350;12.410;2023-05-02T08:36:13;26.85;;;16.75;;
50717;SDS011;60557;51.350;12.410;2023-05-02T08:38:42;23.08;;;15.60;;
50717;SDS011;60557;51.350;12.410;2023-05-02T08:41:15;19.92;;;14.73;;
50717;SDS011;60557;51.350;12.410;2023-05-02T08:43:42;33.85;;;16.52;;
50717;SDS011;60557;51.350;12.410;2023-05-02T08:46:11;21.95;;;15.48;;
50717;SDS011;60557;51.350;12.410;2023-05-02T08:48:39;25.08;;;15.65;;
50717;SDS011;60557;51.350;12.410;2023-05-02T08:51:09;39.35;;;18.42;;
50717;SDS011;60557;51.350;12.410;2023-05-02T08:53:36;23.67;;;15.70;;
50717;SDS011;60557;51.350;12.410;2023-05-02T08:56:02;25.27;;;15.93;;
50717;SDS011;60557;51.350;12.410;2023-05-02T08:58:28;29.08;;;16.40;;
50717;SDS011;60557;51.350;12.410;2023-05-02T09:00:55;23.23;;;15.85;;
50717;SDS011;60557;51.350;12.410;2023-05-02T09:03:31;23.13;;;14.90;;
50717;SDS011;60557;51.350;12.410;2023-05-02T09:06:04;21.23;;;14.38;;
50717;SDS011;60557;51.350;12.410;2023-05-02T09:08:33;23.50;;;15.55;;
50717;SDS011;60557;51.350;12.410;2023-05-02T09:11:00;22.85;;;15.75;;
50717;SDS011;60557;51.350;12.410;2023-05-02T09:16:04;26.25;;;15.65;;
50717;SDS011;60557;51.350;12.410;2023-05-02T09:18:34;27.35;;;16.83;;
50717;SDS011;60557;51.350;12.410;2023-05-02T09:21:02;21.00;;;15.13;;
50717;SDS011;60557;51.350;12.410;2023-05-02T09:23:34;22.98;;;15.63;;
50717;SDS011;60557;51.350;12.410;2023-05-02T09:26:00;21.92;;;15.05;;
50717;SDS011;60557;51.350;12.410;2023-05-02T09:28:40;22.45;;;15.73;;
50717;SDS011;60557;51.350;12.410;2023-05-02T09:31:07;23.42;;;16.33;;
50717;SDS011;60557;51.350;12.410;2023-05-02T09:33:36;20.45;;;15.18;;
50717;SDS011;60557;51.350;12.410;2023-05-02T09:36:03;23.40;;;15.32;;
50717;SDS011;60557;51.350;12.410;2023-05-02T09:38:31;21.90;;;14.68;;
50717;SDS011;60557;51.350;12.410;2023-05-02T09:40:58;22.55;;;15.65;;
50717;SDS011;60557;51.350;12.410;2023-05-02T09:43:25;18.25;;;13.80;;
50717;SDS011;60557;51.350;12.410;2023-05-02T09:45:58;17.95;;;14.13;;
50717;SDS011;60557;51.350;12.410;2023-05-02T09:48:28;19.73;;;14.75;;
50717;SDS011;60557;51.350;12.410;2023-05-02T09:53:20;18.85;;;14.05;;
50717;SDS011;60557;51.350;12.410;2023-05-02T09:55:51;23.60;;;14.25;;
50717;SDS011;60557;51.350;12.410;2023-05-02T09:58:23;19.48;;;13.93;;
50717;SDS011;60557;51.350;12.410;2023-05-02T10:00:50;22.08;;;15.25;;
50717;SDS011;60557;51.350;12.410;2023-05-02T10:03:17;20.13;;;14.52;;
50717;SDS011;60557;51.350;12.410;2023-05-02T10:05:44;20.38;;;14.57;;
50717;SDS011;60557;51.350;12.410;2023-05-02T10:08:11;20.65;;;14.90;;
50717;SDS011;60557;51.350;12.410;2023-05-02T10:10:41;22.77;;;14.65;;
50717;SDS011;60557;51.350;12.410;2023-05-02T10:13:09;19.10;;;13.60;;
50717;SDS011;60557;51.350;12.410;2023-05-02T10:15:36;17.60;;;13.23;;
50717;SDS011;60557;51.350;12.410;2023-05-02T10:18:07;17.30;;;12.60;;
50717;SDS011;60557;51.350;12.410;2023-05-02T10:20:41;18.95;;;13.00;;
50717;SDS011;60557;51.350;12.410;2023-05-02T10:23:09;18.35;;;13.93;;
50717;SDS011;60557;51.350;12.410;2023-05-02T10:25:35;15.18;;;11.85;;
50717;SDS011;60557;51.350;12.410;2023-05-02T10:28:01;15.32;;;11.73;;
50717;SDS011;60557;51.350;12.410;2023-05-02T10:30:28;12.48;;;10.30;;
50717;SDS011;60557;51.350;12.410;2023-05-02T10:32:54;11.15;;;8.30;;
50717;SDS011;60557;51.350;12.410;2023-05-02T10:35:29;10.43;;;8.05;;
50717;SDS011;60557;51.350;12.410;2023-05-02T10:37:55;12.60;;;7.53;;
50717;SDS011;60557;51.350;12.410;2023-05-02T10:40:22;8.90;;;6.25;;
50717;SDS011;60557;51.350;12.410;2023-05-02T10:42:48;12.40;;;7.45;;
50717;SDS011;60557;51.350;12.410;2023-05-02T10:50:41;10.40;;;7.93;;
50717;SDS011;60557;51.350;12.410;2023-05-02T10:53:21;12.05;;;8.10;;
50717;SDS011;60557;51.350;12.410;2023-05-02T10:58:32;10.68;;;6.65;;
50717;SDS011;60557;51.350;12.410;2023-05-02T11:06:19;17.27;;;7.85;;
50717;SDS011;60557;51.350;12.410;2023-05-02T11:08:45;11.77;;;7.30;;
50717;SDS011;60557;51.350;12.410;2023-05-02T11:24:50;12.35;;;6.95;;
50717;SDS011;60557;51.350;12.410;2023-05-02T11:30:05;8.50;;;6.32;;
50717;SDS011;60557;51.350;12.410;2023-05-02T11:35:21;9.93;;;7.38;;
50717;SDS011;60557;51.350;12.410;2023-05-02T11:40:23;12.80;;;4.93;;
50717;SDS011;60557;51.350;12.410;2023-05-02T11:42:50;7.75;;;5.88;;
50717;SDS011;60557;51.350;12.410;2023-05-02T11:45:16;7.05;;;5.97;;
50717;SDS011;60557;51.350;12.410;2023-05-02T11:47:46;8.70;;;5.28;;
50717;SDS011;60557;51.350;12.410;2023-05-02T11:50:14;9.60;;;6.35;;
50717;SDS011;60557;51.350;12.410;2023-05-02T11:52:41;7.07;;;5.55;;
50717;SDS011;60557;51.350;12.410;2023-05-02T11:55:11;7.57;;;6.03;;
50717;SDS011;60557;51.350;12.410;2023-05-02T11:57:38;10.32;;;6.82;;
50717;SDS011;60557;51.350;12.410;2023-05-02T12:00:05;9.70;;;6.20;;
50717;SDS011;60557;51.350;12.410;2023-05-02T12:02:38;7.68;;;5.32;;
50717;SDS011;60557;51.350;12.410;2023-05-02T12:05:08;6.05;;;4.85;;
50717;SDS011;60557;51.350;12.410;2023-05-02T12:07:38;6.75;;;4.78;;
50717;SDS011;60557;51.350;12.410;2023-05-02T12:10:05;6.05;;;4.35;;
50717;SDS011;60557;51.350;12.410;2023-05-02T12:12:32;6.78;;;4.78;;
50717;SDS011;60557;51.350;12.410;2023-05-02T12:15:02;6.68;;;4.70;;
50717;SDS011;60557;51.350;12.410;2023-05-02T12:17:29;6.20;;;4.60;;
50717;SDS011;60557;51.350;12.410;2023-05-02T12:19:56;5.60;;;4.68;;
50717;SDS011;60557;51.350;12.410;2023-05-02T12:22:22;6.47;;;4.88;;
50717;SDS011;60557;51.350;12.410;2023-05-02T12:24:57;7.13;;;4.57;;
50717;SDS011;60557;51.350;12.410;2023-05-02T12:27:23;7.35;;;4.68;;
50717;SDS011;60557;51.350;12.410;2023-05-02T12:29:54;6.00;;;4.35;;
50717;SDS011;60557;51.350;12.410;2023-05-02T12:32:30;6.90;;;4.13;;
50717;SDS011;60557;51.350;12.410;2023-05-02T12:34:57;6.18;;;4.68;;
50717;SDS011;60557;51.350;12.410;2023-05-02T12:37:24;5.53;;;4.15;;
50717;SDS011;60557;51.350;12.410;2023-05-02T12:39:52;6.15;;;4.22;;
50717;SDS011;60557;51.350;12.410;2023-05-02T12:42:20;7.72;;;4.10;;
50717;SDS011;60557;51.350;12.410;2023-05-02T12:44:48;7.35;;;3.97;;
50717;SDS011;60557;51.350;12.410;2023-05-02T12:47:16;6.53;;;4.60;;
50717;SDS011;60557;51.350;12.410;2023-05-02T12:49:50;5.78;;;4.30;;
50717;SDS011;60557;51.350;12.410;2023-05-02T12:52:19;7.30;;;4.22;;
50717;SDS011;60557;51.350;12.410;2023-05-02T12:54:45;5.68;;;4.13;;
50717;SDS011;60557;51.350;12.410;2023-05-02T12:57:23;4.80;;;3.50;;
50717;SDS011;60557;51.350;12.410;2023-05-02T12:59:50;7.10;;;4.25;;
50717;SDS011;60557;51.350;12.410;2023-05-02T13:02:20;5.85;;;4.60;;
50717;SDS011;60557;51.350;12.410;2023-05-02T13:04:46;5.53;;;3.75;;
50717;SDS011;60557;51.350;12.410;2023-05-02T13:07:12;5.20;;;3.85;;
50717;SDS011;60557;51.350;12.410;2023-05-02T13:09:38;6.35;;;4.45;;
50717;SDS011;60557;51.350;12.410;2023-05-02T13:12:05;5.05;;;3.38;;
50717;SDS011;60557;51.350;12.410;2023-05-02T13:14:31;4.60;;;3.20;;
50717;SDS011;60557;51.350;12.410;2023-05-02T13:16:57;4.97;;;3.20;;
50717;SDS011;60557;51.350;12.410;2023-05-02T13:19:23;11.90;;;2.80;;
50717;SDS011;60557;51.350;12.410;2023-05-02T13:21:49;7.50;;;2.60;;
50717;SDS011;60557;51.350;12.410;2023-05-02T13:24:15;4.35;;;2.80;;
50717;SDS011;60557;51.350;12.410;2023-05-02T13:26:41;4.97;;;3.10;;
50717;SDS011;60557;51.350;12.410;2023-05-02T13:29:10;6.47;;;3.42;;
50717;SDS011;60557;51.350;12.410;2023-05-02T13:31:36;9.13;;;3.25;;
50717;SDS011;60557;51.350;12.410;2023-05-02T13:34:03;8.05;;;3.60;;
50717;SDS011;60557;51.350;12.410;2023-05-02T13:36:29;8.93;;;3.08;;
50717;SDS011;60557;51.350;12.410;2023-05-02T13:38:55;5.63;;;3.00;;
50717;SDS011;60557;51.350;12.410;2023-05-02T13:41:22;19.08;;;4.43;;
50717;SDS011;60557;51.350;12.410;2023-05-02T13:43:53;8.88;;;3.50;;
50717;SDS011;60557;51.350;12.410;2023-05-02T13:46:19;7.53;;;3.13;;
50717;SDS011;60557;51.350;12.410;2023-05-02T13:48:48;12.15;;;5.65;;
50717;SDS011;60557;51.350;12.410;2023-05-02T13:51:14;12.27;;;4.28;;
50717;SDS011;60557;51.350;12.410;2023-05-02T13:53:40;8.85;;;2.97;;
50717;SDS011;60557;51.350;12.410;2023-05-02T13:56:07;8.05;;;3.40;;
50717;SDS011;60557;51.350;12.410;2023-05-02T13:58:33;6.30;;;2.72;;
50717;SDS011;60557;51.350;12.410;2023-05-02T14:00:59;9.45;;;3.70;;
50717;SDS011;60557;51.350;12.410;2023-05-02T14:03:25;8.32;;;3.53;;
50717;SDS011;60557;51.350;12.410;2023-05-02T14:05:51;8.32;;;3.50;;
50717;SDS011;60557;51.350;12.410;2023-05-02T14:08:17;9.50;;;4.07;;
50717;SDS011;60557;51.350;12.410;2023-05-02T14:10:43;9.73;;;3.92;;
50717;SDS011;60557;51.350;12.410;2023-05-02T14:13:10;8.48;;;4.47;;
50717;SDS011;60557;51.350;12.410;2023-05-02T14:15:36;13.55;;;4.03;;
50717;SDS011;60557;51.350;12.410;2023-05-02T14:18:02;13.02;;;4.95;;
50717;SDS011;60557;51.350;12.410;2023-05-02T14:20:28;6.63;;;3.08;;
50717;SDS011;60557;51.350;12.410;2023-05-02T14:23:00;13.57;;;3.60;;
50717;SDS011;60557;51.350;12.410;2023-05-02T14:25:27;10.80;;;3.85;;
50717;SDS011;60557;51.350;12.410;2023-05-02T14:27:53;9.70;;;4.15;;
50717;SDS011;60557;51.350;12.410;2023-05-02T14:30:24;17.52;;;4.90;;
50717;SDS011;60557;51.350;12.410;2023-05-02T14:32:50;13.00;;;3.63;;
50717;SDS011;60557;51.350;12.410;2023-05-02T14:35:16;12.73;;;4.35;;
50717;SDS011;60557;51.350;12.410;2023-05-02T14:37:45;11.95;;;6.15;;
50717;SDS011;60557;51.350;12.410;2023-05-02T14:40:11;10.85;;;3.17;;
50717;SDS011;60557;51.350;12.410;2023-05-02T14:42:41;8.27;;;2.90;;
50717;SDS011;60557;51.350;12.410;2023-05-02T14:45:08;13.45;;;3.50;;
50717;SDS011;60557;51.350;12.410;2023-05-02T14:47:34;10.65;;;2.95;;
50717;SDS011;60557;51.350;12.410;2023-05-02T14:50:04;9.43;;;2.88;;
50717;SDS011;60557;51.350;12.410;2023-05-02T14:52:30;9.23;;;3.20;;
50717;SDS011;60557;51.350;12.410;2023-05-02T14:55:00;9.38;;;3.97;;
50717;SDS011;60557;51.350;12.410;2023-05-02T14:57:26;12.60;;;2.72;;
50717;SDS011;60557;51.350;12.410;2023-05-02T14:59:52;9.20;;;3.00;;
50717;SDS011;60557;51.350;12.410;2023-05-02T15:02:18;9.40;;;2.88;;
50717;SDS011;60557;51.350;12.410;2023-05-02T15:04:45;7.97;;;2.67;;
50717;SDS011;60557;51.350;12.410;2023-05-02T15:07:13;11.05;;;3.95;;
50717;SDS011;60557;51.350;12.410;2023-05-02T15:09:39;13.02;;;3.50;;
50717;SDS011;60557;51.350;12.410;2023-05-02T15:12:05;17.33;;;4.55;;
50717;SDS011;60557;51.350;12.410;2023-05-02T15:14:31;10.75;;;2.80;;
50717;SDS011;60557;51.350;12.410;2023-05-02T15:17:02;9.05;;;2.78;;
50717;SDS011;60557;51.350;12.410;2023-05-02T15:19:30;10.82;;;2.88;;
50717;SDS011;60557;51.350;12.410;2023-05-02T15:21:56;10.15;;;3.17;;
50717;SDS011;60557;51.350;12.410;2023-05-02T15:24:25;10.65;;;3.70;;
50717;SDS011;60557;51.350;12.410;2023-05-02T15:26:52;10.30;;;3.00;;
50717;SDS011;60557;51.350;12.410;2023-05-02T15:29:18;9.55;;;3.17;;
50717;SDS011;60557;51.350;12.410;2023-05-02T15:31:44;10.70;;;3.95;;
50717;SDS011;60557;51.350;12.410;2023-05-02T15:34:10;7.40;;;2.83;;
50717;SDS011;60557;51.350;12.410;2023-05-02T15:36:36;9.75;;;2.90;;
50717;SDS011;60557;51.350;12.410;2023-05-02T15:39:03;11.18;;;3.58;;